createdAt,value
2023-01-17T00:00:04.298Z,3.31
2023-01-17T00:01:04.153Z,3.31
2023-01-17T00:02:04.231Z,3.38
2023-01-17T00:03:04.411Z,3.31
2023-01-17T00:04:04.263Z,3.31
2023-01-17T00:05:04.240Z,3.31
2023-01-17T00:06:04.146Z,3.31
2023-01-17T00:07:04.231Z,3.31
2023-01-17T00:08:04.324Z,3.31
2023-01-17T00:09:04.400Z,3.31
2023-01-17T00:10:04.412Z,3.31
2023-01-17T00:11:04.306Z,3.31
2023-01-17T00:12:04.307Z,3.31
2023-01-17T00:13:03.602Z,3.38
2023-01-17T00:14:03.540Z,3.38
2023-01-17T00:15:03.698Z,3.31
2023-01-17T00:16:03.657Z,3.38
2023-01-17T00:17:03.694Z,3.38
2023-01-17T00:18:03.749Z,3.38
2023-01-17T00:19:03.588Z,3.38
2023-01-17T00:20:03.679Z,3.38
2023-01-17T00:21:03.599Z,3.38
2023-01-17T00:22:03.588Z,3.38
2023-01-17T00:23:03.591Z,3.38
2023-01-17T00:24:03.588Z,3.38
2023-01-17T00:25:03.840Z,3.38
2023-01-17T00:26:03.761Z,3.38
2023-01-17T00:27:03.685Z,3.38
2023-01-17T00:28:03.752Z,3.38
2023-01-17T00:29:03.767Z,3.38
2023-01-17T00:30:03.831Z,3.38
2023-01-17T00:31:03.943Z,3.38
2023-01-17T00:32:03.831Z,3.38
2023-01-17T00:33:03.907Z,3.38
2023-01-17T00:34:04.004Z,3.38
2023-01-17T00:35:03.982Z,3.38
2023-01-17T00:36:04.035Z,3.38
2023-01-17T00:37:03.993Z,3.38
2023-01-17T00:38:04.077Z,3.38
2023-01-17T00:39:04.144Z,3.38
2023-01-17T00:40:04.265Z,3.38
2023-01-17T00:41:04.314Z,3.38
2023-01-17T00:42:04.219Z,3.38
2023-01-17T00:43:04.313Z,3.38
2023-01-17T00:44:03.485Z,3.44
2023-01-17T00:45:04.388Z,3.38
2023-01-17T00:46:03.670Z,3.38
2023-01-17T00:47:03.665Z,3.38
2023-01-17T00:48:03.676Z,3.44
2023-01-17T00:49:03.751Z,3.44
2023-01-17T00:50:03.709Z,3.44
2023-01-17T00:51:03.667Z,3.44
2023-01-17T00:52:03.765Z,3.44
2023-01-17T00:53:03.750Z,3.44
2023-01-17T00:54:03.757Z,3.44
2023-01-17T00:55:03.845Z,3.44
2023-01-17T00:56:03.906Z,3.44
2023-01-17T00:57:03.914Z,3.50
2023-01-17T00:58:03.994Z,3.50
2023-01-17T00:59:03.907Z,3.50
2023-01-17T01:00:03.921Z,3.50
2023-01-17T01:01:04.280Z,3.44
2023-01-17T01:02:04.267Z,3.50
2023-01-17T01:03:04.073Z,3.50
2023-01-17T01:04:04.152Z,3.50
2023-01-17T01:05:04.163Z,3.44
2023-01-17T01:06:04.080Z,3.44
2023-01-17T01:07:03.992Z,3.44
2023-01-17T01:08:03.996Z,3.44
2023-01-17T01:09:04.086Z,3.44
2023-01-17T01:10:04.325Z,3.44
2023-01-17T01:11:04.401Z,3.44
2023-01-17T01:12:03.431Z,3.44
2023-01-17T01:13:03.622Z,3.44
2023-01-17T01:14:03.430Z,3.44
2023-01-17T01:15:03.427Z,3.50
2023-01-17T01:16:03.436Z,3.50
2023-01-17T01:17:03.616Z,3.44
2023-01-17T01:18:03.506Z,3.44
2023-01-17T01:19:03.532Z,3.44
2023-01-17T01:20:04.471Z,3.44
2023-01-17T01:21:04.396Z,3.44
2023-01-17T01:22:03.510Z,3.44
2023-01-17T01:23:03.510Z,3.44
2023-01-17T01:24:03.833Z,3.44
2023-01-17T01:25:03.833Z,3.44
2023-01-17T01:26:03.757Z,3.44
2023-01-17T01:27:03.844Z,3.44
2023-01-17T01:28:04.113Z,3.44
2023-01-17T01:29:04.228Z,3.44
2023-01-17T01:30:04.227Z,3.44
2023-01-17T01:31:04.224Z,3.44
2023-01-17T01:32:04.312Z,3.44
2023-01-17T01:33:04.317Z,3.44
2023-01-17T01:34:04.314Z,3.44
2023-01-17T01:35:04.482Z,3.44
2023-01-17T01:36:04.393Z,3.44
2023-01-17T01:37:04.394Z,3.38
2023-01-17T01:38:04.428Z,3.44
2023-01-17T01:39:04.397Z,3.38
2023-01-17T01:40:04.389Z,3.38
2023-01-17T01:41:04.320Z,3.38
2023-01-17T01:42:04.238Z,3.38
2023-01-17T01:43:04.305Z,3.38
2023-01-17T01:44:04.414Z,3.38
2023-01-17T01:45:03.596Z,3.38
2023-01-17T01:46:03.598Z,3.31
2023-01-17T01:47:03.759Z,3.31
2023-01-17T01:48:03.883Z,3.31
2023-01-17T01:49:03.947Z,3.31
2023-01-17T01:50:03.990Z,3.31
2023-01-17T01:51:04.002Z,3.31
2023-01-17T01:52:03.997Z,3.31
2023-01-17T01:53:04.076Z,3.31
2023-01-17T01:54:04.081Z,3.31
2023-01-17T01:55:04.069Z,3.31
2023-01-17T01:56:04.073Z,3.31
2023-01-17T01:57:04.069Z,3.31
2023-01-17T01:58:04.231Z,3.31
2023-01-17T01:59:04.156Z,3.25
2023-01-17T02:00:04.162Z,3.25
2023-01-17T02:01:04.248Z,3.25
2023-01-17T02:02:04.227Z,3.25
2023-01-17T02:03:04.249Z,3.25
2023-01-17T02:04:04.377Z,3.25
2023-01-17T02:05:04.774Z,3.25
2023-01-17T02:06:04.319Z,3.25
2023-01-17T02:07:03.433Z,3.25
2023-01-17T02:08:03.522Z,3.25
2023-01-17T02:09:03.527Z,3.25
2023-01-17T02:10:03.683Z,3.25
2023-01-17T02:11:03.667Z,3.25
2023-01-17T02:12:03.754Z,3.25
2023-01-17T02:13:03.885Z,3.25
2023-01-17T02:14:03.692Z,3.25
2023-01-17T02:15:03.748Z,3.25
2023-01-17T02:16:03.953Z,3.25
2023-01-17T02:17:04.076Z,3.25
2023-01-17T02:18:04.080Z,3.25
2023-01-17T02:19:04.161Z,3.25
2023-01-17T02:20:04.273Z,3.25
2023-01-17T02:21:04.347Z,3.25
2023-01-17T02:22:04.315Z,3.25
2023-01-17T02:23:03.675Z,3.25
2023-01-17T02:24:03.670Z,3.25
2023-01-17T02:25:03.602Z,3.19
2023-01-17T02:26:03.516Z,3.19
2023-01-17T02:27:03.437Z,3.19
2023-01-17T02:28:03.825Z,3.19
2023-01-17T02:29:03.912Z,3.19
2023-01-17T02:30:03.998Z,3.19
2023-01-17T02:31:03.941Z,3.19
2023-01-17T02:32:03.984Z,3.19
2023-01-17T02:33:03.997Z,3.19
2023-01-17T02:34:04.077Z,3.19
2023-01-17T02:35:04.007Z,3.19
2023-01-17T02:36:04.104Z,3.19
2023-01-17T02:37:04.149Z,3.19
2023-01-17T02:38:04.158Z,3.19
2023-01-17T02:39:04.238Z,3.19
2023-01-17T02:40:04.230Z,3.19
2023-01-17T02:41:04.154Z,3.19
2023-01-17T02:42:04.146Z,3.19
2023-01-17T02:43:04.147Z,3.19
2023-01-17T02:44:04.170Z,3.19
2023-01-17T02:45:04.061Z,3.19
2023-01-17T02:46:04.103Z,3.19
2023-01-17T02:47:04.162Z,3.19
2023-01-17T02:48:04.156Z,3.19
2023-01-17T02:49:04.074Z,3.12
2023-01-17T02:50:04.154Z,3.12
2023-01-17T02:51:04.167Z,3.12
2023-01-17T02:52:04.311Z,3.12
2023-01-17T02:53:04.319Z,3.12
2023-01-17T02:54:04.355Z,3.06
2023-01-17T02:55:04.403Z,3.06
2023-01-17T02:56:04.393Z,3.06
2023-01-17T02:57:04.328Z,3.06
2023-01-17T02:58:04.228Z,3.06
2023-01-17T02:59:04.381Z,3.06
2023-01-17T03:00:04.405Z,3.06
2023-01-17T03:01:04.388Z,3.06
2023-01-17T03:02:04.390Z,3.06
2023-01-17T03:03:04.231Z,3.06
2023-01-17T03:04:04.248Z,3.00
2023-01-17T03:05:04.400Z,3.00
2023-01-17T03:06:04.350Z,3.00
2023-01-17T03:07:04.410Z,3.00
2023-01-17T03:08:04.481Z,3.00
2023-01-17T03:09:03.517Z,3.00
2023-01-17T03:10:03.563Z,3.00
2023-01-17T03:11:03.522Z,3.00
2023-01-17T03:12:03.769Z,2.94
2023-01-17T03:13:03.846Z,2.94
2023-01-17T03:14:03.843Z,2.94
2023-01-17T03:15:03.919Z,2.94
2023-01-17T03:16:03.830Z,2.94
2023-01-17T03:17:03.928Z,2.94
2023-01-17T03:18:03.908Z,2.94
2023-01-17T03:19:03.992Z,2.88
2023-01-17T03:20:04.153Z,2.88
2023-01-17T03:21:04.172Z,2.88
2023-01-17T03:22:04.071Z,2.88
2023-01-17T03:23:04.068Z,2.81
2023-01-17T03:24:04.150Z,2.81
2023-01-17T03:25:04.149Z,2.81
2023-01-17T03:26:04.260Z,2.81
2023-01-17T03:27:04.305Z,2.81
2023-01-17T03:28:04.234Z,2.81
2023-01-17T03:29:04.153Z,2.81
2023-01-17T03:30:04.159Z,2.81
2023-01-17T03:31:04.327Z,2.81
2023-01-17T03:32:04.223Z,2.75
2023-01-17T03:33:04.241Z,2.81
2023-01-17T03:34:04.236Z,2.75
2023-01-17T03:35:04.243Z,2.75
2023-01-17T03:36:04.223Z,2.75
2023-01-17T03:37:04.187Z,2.75
2023-01-17T03:38:04.234Z,2.75
2023-01-17T03:39:04.220Z,2.69
2023-01-17T03:40:04.328Z,2.69
2023-01-17T03:41:04.312Z,2.69
2023-01-17T03:42:04.248Z,2.69
2023-01-17T03:43:04.249Z,2.69
2023-01-17T03:44:04.143Z,2.69
2023-01-17T03:45:04.154Z,2.69
2023-01-17T03:46:04.283Z,2.69
2023-01-17T03:47:04.152Z,2.62
2023-01-17T03:48:04.149Z,2.62
2023-01-17T03:49:03.754Z,2.62
2023-01-17T03:50:03.847Z,2.62
2023-01-17T03:51:03.843Z,2.62
2023-01-17T03:52:03.931Z,2.62
2023-01-17T03:53:03.915Z,2.56
2023-01-17T03:54:03.842Z,2.56
2023-01-17T03:55:03.916Z,2.56
2023-01-17T03:56:04.072Z,2.56
2023-01-17T03:57:04.314Z,2.56
2023-01-17T03:58:04.401Z,2.56
2023-01-17T03:59:03.516Z,2.56
2023-01-17T04:00:04.469Z,2.56
2023-01-17T04:01:04.490Z,2.62
2023-01-17T04:02:03.608Z,2.56
2023-01-17T04:03:03.672Z,2.62
2023-01-17T04:04:03.674Z,2.62
2023-01-17T04:05:03.758Z,2.62
2023-01-17T04:06:03.758Z,2.62
2023-01-17T04:07:03.766Z,2.62
2023-01-17T04:08:04.145Z,2.62
2023-01-17T04:09:04.069Z,2.62
2023-01-17T04:10:04.072Z,2.62
2023-01-17T04:11:04.400Z,2.56
2023-01-17T04:12:04.582Z,2.56
2023-01-17T04:13:04.231Z,2.62
2023-01-17T04:14:04.317Z,2.62
2023-01-17T04:15:04.158Z,2.62
2023-01-17T04:16:04.159Z,2.56
2023-01-17T04:17:04.193Z,2.62
2023-01-17T04:18:04.084Z,2.62
2023-01-17T04:19:04.390Z,2.62
2023-01-17T04:20:04.390Z,2.62
2023-01-17T04:21:04.387Z,2.62
2023-01-17T04:22:04.392Z,2.62
2023-01-17T04:23:04.400Z,2.62
2023-01-17T04:24:04.314Z,2.62
2023-01-17T04:25:04.474Z,2.62
2023-01-17T04:26:04.430Z,2.62
2023-01-17T04:27:04.311Z,2.69
2023-01-17T04:28:04.397Z,2.69
2023-01-17T04:29:04.326Z,2.69
2023-01-17T04:30:04.392Z,2.69
2023-01-17T04:31:04.466Z,2.69
2023-01-17T04:32:03.590Z,2.69
2023-01-17T04:33:03.754Z,2.69
2023-01-17T04:34:03.665Z,2.75
2023-01-17T04:35:03.676Z,2.75
2023-01-17T04:36:03.676Z,2.75
2023-01-17T04:37:03.909Z,2.69
2023-01-17T04:38:03.995Z,2.75
2023-01-17T04:39:03.993Z,2.75
2023-01-17T04:40:03.987Z,2.75
2023-01-17T04:41:03.907Z,2.75
2023-01-17T04:42:03.986Z,2.75
2023-01-17T04:43:04.000Z,2.75
2023-01-17T04:44:04.048Z,2.75
2023-01-17T04:45:03.985Z,2.75
2023-01-17T04:46:04.076Z,2.75
2023-01-17T04:47:03.967Z,2.75
2023-01-17T04:48:03.904Z,2.75
2023-01-17T04:49:03.998Z,2.75
2023-01-17T04:50:03.907Z,2.75
2023-01-17T04:51:03.998Z,2.75
2023-01-17T04:52:03.911Z,2.81
2023-01-17T04:53:03.912Z,2.81
2023-01-17T04:54:03.992Z,2.81
2023-01-17T04:55:04.068Z,2.81
2023-01-17T04:56:03.996Z,2.81
2023-01-17T04:57:04.151Z,2.81
2023-01-17T04:58:04.073Z,2.81
2023-01-17T04:59:04.160Z,2.81
2023-01-17T05:00:04.153Z,2.81
2023-01-17T05:01:04.229Z,2.81
2023-01-17T05:02:04.155Z,2.81
2023-01-17T05:03:04.143Z,2.81
2023-01-17T05:04:04.310Z,2.81
2023-01-17T05:05:04.314Z,2.81
2023-01-17T05:06:04.227Z,2.81
2023-01-17T05:07:04.319Z,2.81
2023-01-17T05:08:04.228Z,2.81
2023-01-17T05:09:03.516Z,2.81
2023-01-17T05:10:03.587Z,2.81
2023-01-17T05:11:03.752Z,2.81
2023-01-17T05:12:03.758Z,2.81
2023-01-17T05:13:03.670Z,2.81
2023-01-17T05:14:03.674Z,2.75
2023-01-17T05:15:03.603Z,2.75
2023-01-17T05:16:03.927Z,2.75
2023-01-17T05:17:04.002Z,2.75
2023-01-17T05:18:04.002Z,2.75
2023-01-17T05:19:03.921Z,2.75
2023-01-17T05:20:03.911Z,2.69
2023-01-17T05:21:03.821Z,2.69
2023-01-17T05:22:04.325Z,2.69
2023-01-17T05:23:03.906Z,2.69
2023-01-17T05:24:03.913Z,2.69
2023-01-17T05:25:04.249Z,2.69
2023-01-17T05:26:04.142Z,2.69
2023-01-17T05:27:04.317Z,2.69
2023-01-17T05:28:04.315Z,2.62
2023-01-17T05:29:04.413Z,2.62
2023-01-17T05:30:04.469Z,2.62
2023-01-17T05:31:04.510Z,2.62
2023-01-17T05:32:04.314Z,2.62
2023-01-17T05:33:04.311Z,2.62
2023-01-17T05:34:04.396Z,2.62
2023-01-17T05:35:04.396Z,2.62
2023-01-17T05:36:03.583Z,2.62
2023-01-17T05:37:03.751Z,2.62
2023-01-17T05:38:03.791Z,2.62
2023-01-17T05:39:03.664Z,2.62
2023-01-17T05:40:04.074Z,2.62
2023-01-17T05:41:03.986Z,2.62
2023-01-17T05:42:04.065Z,2.62
2023-01-17T05:43:04.169Z,2.62
2023-01-17T05:44:04.153Z,2.62
2023-01-17T05:45:04.070Z,2.62
2023-01-17T05:46:04.096Z,2.62
2023-01-17T05:47:04.067Z,2.69
2023-01-17T05:48:04.005Z,2.69
2023-01-17T05:49:04.081Z,2.69
2023-01-17T05:50:04.094Z,2.69
2023-01-17T05:51:03.991Z,2.69
2023-01-17T05:52:03.997Z,2.69
2023-01-17T05:53:03.994Z,2.69
2023-01-17T05:54:03.993Z,2.69
2023-01-17T05:55:04.149Z,2.69
2023-01-17T05:56:04.155Z,2.69
2023-01-17T05:57:04.149Z,2.69
2023-01-17T05:58:04.145Z,2.69
2023-01-17T05:59:04.071Z,2.69
2023-01-17T06:00:04.156Z,2.69
2023-01-17T06:01:04.164Z,2.69
2023-01-17T06:02:04.184Z,2.69
2023-01-17T06:03:04.154Z,2.69
2023-01-17T06:04:04.314Z,2.69
2023-01-17T06:05:04.425Z,2.69
2023-01-17T06:06:04.401Z,2.69
2023-01-17T06:07:04.395Z,2.69
2023-01-17T06:08:04.388Z,2.69
2023-01-17T06:09:04.303Z,2.69
2023-01-17T06:10:04.314Z,2.69
2023-01-17T06:11:04.231Z,2.69
2023-01-17T06:12:04.241Z,2.69
2023-01-17T06:13:04.227Z,2.69
2023-01-17T06:14:04.151Z,2.69
2023-01-17T06:15:04.231Z,2.69
2023-01-17T06:16:04.429Z,2.69
2023-01-17T06:17:04.230Z,2.69
2023-01-17T06:18:03.555Z,2.69
2023-01-17T06:19:03.977Z,2.69
2023-01-17T06:20:09.259Z,2.69
2023-01-17T06:21:04.077Z,2.69
2023-01-17T06:22:03.999Z,2.69
2023-01-17T06:23:03.985Z,2.69
2023-01-17T06:24:04.349Z,2.69
2023-01-17T06:25:04.002Z,2.69
2023-01-17T06:26:04.157Z,2.69
2023-01-17T06:27:04.149Z,2.69
2023-01-17T06:28:04.079Z,2.69
2023-01-17T06:29:04.233Z,2.69
2023-01-17T06:30:04.315Z,2.69
2023-01-17T06:31:04.281Z,2.69
2023-01-17T06:32:04.229Z,2.69
2023-01-17T06:33:04.322Z,2.69
2023-01-17T06:34:04.327Z,2.69
2023-01-17T06:35:04.434Z,2.69
2023-01-17T06:36:03.524Z,2.69
2023-01-17T06:37:03.603Z,2.69
2023-01-17T06:38:03.518Z,2.62
2023-01-17T06:39:03.436Z,2.62
2023-01-17T06:40:03.594Z,2.62
2023-01-17T06:41:03.942Z,2.62
2023-01-17T06:42:03.599Z,2.62
2023-01-17T06:43:03.764Z,2.62
2023-01-17T06:44:03.677Z,2.62
2023-01-17T06:45:03.685Z,2.62
2023-01-17T06:46:03.675Z,2.62
2023-01-17T06:47:03.675Z,2.56
2023-01-17T06:48:03.960Z,2.56
2023-01-17T06:49:03.829Z,2.56
2023-01-17T06:50:03.751Z,2.56
2023-01-17T06:51:03.747Z,2.56
2023-01-17T06:52:03.665Z,2.50
2023-01-17T06:53:03.753Z,2.50
2023-01-17T06:54:03.753Z,2.50
2023-01-17T06:55:03.761Z,2.44
2023-01-17T06:56:03.689Z,2.44
2023-01-17T06:57:03.763Z,2.44
2023-01-17T06:58:03.800Z,2.44
2023-01-17T06:59:03.679Z,2.44
2023-01-17T07:00:03.625Z,2.38
2023-01-17T07:01:03.681Z,2.44
2023-01-17T07:02:03.595Z,2.44
2023-01-17T07:03:03.593Z,2.44
2023-01-17T07:04:03.639Z,2.38
2023-01-17T07:05:03.523Z,2.38
2023-01-17T07:06:03.514Z,2.38
2023-01-17T07:07:03.430Z,2.38
2023-01-17T07:08:03.504Z,2.38
2023-01-17T07:09:03.587Z,2.38
2023-01-17T07:10:03.609Z,2.38
2023-01-17T07:11:03.686Z,2.38
2023-01-17T07:12:03.595Z,2.38
2023-01-17T07:13:03.676Z,2.38
2023-01-17T07:14:03.599Z,2.38
2023-01-17T07:15:03.842Z,2.38
2023-01-17T07:16:04.154Z,2.44
2023-01-17T07:17:04.157Z,2.44
2023-01-17T07:18:04.070Z,2.44
2023-01-17T07:19:04.071Z,2.44
2023-01-17T07:20:04.069Z,2.44
2023-01-17T07:21:04.008Z,2.38
2023-01-17T07:22:03.994Z,2.38
2023-01-17T07:23:03.907Z,2.38
2023-01-17T07:24:03.827Z,2.38
2023-01-17T07:25:03.831Z,2.38
2023-01-17T07:26:03.853Z,2.38
2023-01-17T07:27:03.917Z,2.38
2023-01-17T07:28:03.836Z,2.38
2023-01-17T07:29:03.993Z,2.38
2023-01-17T07:30:03.988Z,2.38
2023-01-17T07:31:04.119Z,2.38
2023-01-17T07:32:04.030Z,2.38
2023-01-17T07:33:03.991Z,2.38
2023-01-17T07:34:03.996Z,2.38
2023-01-17T07:35:03.918Z,2.38
2023-01-17T07:36:04.146Z,2.38
2023-01-17T07:37:04.315Z,2.38
2023-01-17T07:38:04.257Z,2.38
2023-01-17T07:39:06.179Z,2.31
2023-01-17T07:40:04.147Z,2.31
2023-01-17T07:41:04.325Z,2.31
2023-01-17T07:42:04.323Z,2.31
2023-01-17T07:43:04.310Z,2.31
2023-01-17T07:44:04.409Z,2.31
2023-01-17T07:45:04.318Z,2.31
2023-01-17T07:46:04.477Z,2.31
2023-01-17T07:47:03.430Z,2.31
2023-01-17T07:48:03.438Z,2.31
2023-01-17T07:49:03.428Z,2.31
2023-01-17T07:50:03.608Z,2.31
2023-01-17T07:51:03.506Z,2.31
2023-01-17T07:52:03.607Z,2.25
2023-01-17T07:53:03.597Z,2.25
2023-01-17T07:54:03.755Z,2.25
2023-01-17T07:55:04.032Z,2.25
2023-01-17T07:56:04.468Z,2.31
2023-01-17T07:57:03.548Z,2.25
2023-01-17T07:58:04.417Z,2.25
2023-01-17T07:59:03.600Z,2.25
2023-01-17T08:00:03.595Z,2.25
2023-01-17T08:01:03.945Z,2.25
2023-01-17T08:02:03.998Z,2.25
2023-01-17T08:03:03.820Z,2.25
2023-01-17T08:04:03.889Z,2.25
2023-01-17T08:05:04.041Z,2.25
2023-01-17T08:06:04.077Z,2.25
2023-01-17T08:07:04.082Z,2.31
2023-01-17T08:08:04.081Z,2.25
2023-01-17T08:09:04.090Z,2.31
2023-01-17T08:10:04.074Z,2.31
2023-01-17T08:11:04.079Z,2.31
2023-01-17T08:12:04.077Z,2.31
2023-01-17T08:13:04.076Z,2.31
2023-01-17T08:14:04.149Z,2.31
2023-01-17T08:15:04.069Z,2.38
2023-01-17T08:16:04.082Z,2.38
2023-01-17T08:17:04.083Z,2.38
2023-01-17T08:18:04.077Z,2.38
2023-01-17T08:19:03.985Z,2.38
2023-01-17T08:20:03.990Z,2.38
2023-01-17T08:21:03.988Z,2.38
2023-01-17T08:22:04.083Z,2.44
2023-01-17T08:23:04.088Z,2.44
2023-01-17T08:24:04.144Z,2.44
2023-01-17T08:25:04.164Z,2.44
2023-01-17T08:26:04.242Z,2.44
2023-01-17T08:27:04.151Z,2.44
2023-01-17T08:28:04.072Z,2.50
2023-01-17T08:29:04.152Z,2.50
2023-01-17T08:30:04.227Z,2.50
2023-01-17T08:31:04.234Z,2.50
2023-01-17T08:32:04.236Z,2.50
2023-01-17T08:33:04.232Z,2.56
2023-01-17T08:34:03.522Z,2.56
2023-01-17T08:35:03.679Z,2.56
2023-01-17T08:36:03.753Z,2.56
2023-01-17T08:37:03.831Z,2.56
2023-01-17T08:38:04.232Z,2.56
2023-01-17T08:39:04.237Z,2.62
2023-01-17T08:40:04.312Z,2.56
2023-01-17T08:41:04.404Z,2.62
2023-01-17T08:42:04.411Z,2.62
2023-01-17T08:43:04.393Z,2.62
2023-01-17T08:44:03.518Z,2.62
2023-01-17T08:45:03.428Z,2.62
2023-01-17T08:46:03.683Z,2.62
2023-01-17T08:47:03.614Z,2.62
2023-01-17T08:48:03.675Z,2.62
2023-01-17T08:49:03.768Z,2.62
2023-01-17T08:50:03.867Z,2.62
2023-01-17T08:51:03.757Z,2.62
2023-01-17T08:52:03.662Z,2.62
2023-01-17T08:53:03.757Z,2.62
2023-01-17T08:54:03.913Z,2.62
2023-01-17T08:55:03.878Z,2.62
2023-01-17T08:56:03.918Z,2.56
2023-01-17T08:57:03.842Z,2.62
2023-01-17T08:58:04.161Z,2.56
2023-01-17T08:59:04.235Z,2.56
2023-01-17T09:00:04.822Z,2.56
2023-01-17T09:01:04.515Z,2.62
2023-01-17T09:02:03.682Z,2.56
2023-01-17T09:03:03.838Z,2.56
2023-01-17T09:04:08.817Z,2.56
2023-01-17T09:05:03.835Z,2.56
2023-01-17T09:06:03.844Z,2.56
2023-01-17T09:07:03.764Z,2.56
2023-01-17T09:08:03.846Z,2.56
2023-01-17T09:09:03.827Z,2.50
2023-01-17T09:10:03.911Z,2.50
2023-01-17T09:11:03.744Z,2.44
2023-01-17T09:12:03.837Z,2.44
2023-01-17T09:13:03.906Z,2.44
2023-01-17T09:14:03.917Z,2.44
2023-01-17T09:15:03.995Z,2.38
2023-01-17T09:16:04.082Z,2.38
2023-01-17T09:17:04.152Z,2.38
2023-01-17T09:18:04.245Z,2.38
2023-01-17T09:19:04.155Z,2.38
2023-01-17T09:20:04.225Z,2.38
2023-01-17T09:21:04.250Z,2.38
2023-01-17T09:22:04.330Z,2.38
2023-01-17T09:23:04.292Z,2.38
2023-01-17T09:24:04.314Z,2.38
2023-01-17T09:25:04.318Z,2.38
2023-01-17T09:26:04.315Z,2.38
2023-01-17T09:27:04.237Z,2.38
2023-01-17T09:28:04.313Z,2.31
2023-01-17T09:29:04.404Z,2.31
2023-01-17T09:30:04.397Z,2.38
2023-01-17T09:31:04.375Z,2.38
2023-01-17T09:32:03.436Z,2.38
2023-01-17T09:33:04.467Z,2.38
2023-01-17T09:34:03.509Z,2.38
2023-01-17T09:35:03.595Z,2.38
2023-01-17T09:36:03.605Z,2.38
2023-01-17T09:37:03.584Z,2.38
2023-01-17T09:38:03.596Z,2.38
2023-01-17T09:39:03.683Z,2.38
2023-01-17T09:40:03.775Z,2.38
2023-01-17T09:41:04.150Z,2.38
2023-01-17T09:42:04.165Z,2.38
2023-01-17T09:43:04.149Z,2.38
2023-01-17T09:44:04.173Z,2.38
2023-01-17T09:45:04.323Z,2.38
2023-01-17T09:46:04.462Z,2.38
2023-01-17T09:47:04.453Z,2.44
2023-01-17T09:48:04.395Z,2.44
2023-01-17T09:49:04.392Z,2.50
2023-01-17T09:50:03.520Z,2.50
2023-01-17T09:51:03.526Z,2.50
2023-01-17T09:52:03.635Z,2.50
2023-01-17T09:53:03.510Z,2.50
2023-01-17T09:54:03.524Z,2.50
2023-01-17T09:55:03.627Z,2.50
2023-01-17T09:56:03.917Z,2.50
2023-01-17T09:57:04.006Z,2.56
2023-01-17T09:58:04.000Z,2.50
2023-01-17T09:59:04.006Z,2.50
2023-01-17T10:00:04.248Z,2.50
2023-01-17T10:01:04.262Z,2.50
2023-01-17T10:02:04.367Z,2.50
2023-01-17T10:03:04.203Z,2.50
2023-01-17T10:04:04.382Z,2.50
2023-01-17T10:05:03.854Z,2.50
2023-01-17T10:06:03.844Z,2.50
2023-01-17T10:07:03.834Z,2.50
2023-01-17T10:08:04.581Z,2.44
2023-01-17T10:09:03.894Z,2.44
2023-01-17T10:10:04.022Z,2.50
2023-01-17T10:11:03.935Z,2.50
2023-01-17T10:12:03.916Z,2.50
2023-01-17T10:13:03.828Z,2.50
2023-01-17T10:14:03.915Z,2.50
2023-01-17T10:15:03.940Z,2.50
2023-01-17T10:16:03.907Z,2.50
2023-01-17T10:17:04.086Z,2.50
2023-01-17T10:18:04.318Z,2.56
2023-01-17T10:19:04.331Z,2.56
2023-01-17T10:20:03.766Z,2.56
2023-01-17T10:21:03.524Z,2.56
2023-01-17T10:22:03.512Z,2.62
2023-01-17T10:23:03.918Z,2.62
2023-01-17T10:24:03.996Z,2.62
2023-01-17T10:25:04.011Z,2.62
2023-01-17T10:26:05.130Z,2.69
2023-01-17T10:27:04.168Z,2.69
2023-01-17T10:28:04.253Z,2.75
2023-01-17T10:29:04.184Z,2.75
2023-01-17T10:30:04.167Z,2.75
2023-01-17T10:31:04.136Z,2.75
2023-01-17T10:32:04.155Z,2.81
2023-01-17T10:33:04.151Z,2.81
2023-01-17T10:34:04.237Z,2.81
2023-01-17T10:35:04.310Z,2.81
2023-01-17T10:36:04.337Z,2.81
2023-01-17T10:37:03.437Z,2.81
2023-01-17T10:38:03.507Z,2.81
2023-01-17T10:39:03.671Z,2.88
2023-01-17T10:40:03.840Z,2.88
2023-01-17T10:41:03.844Z,2.88
2023-01-17T10:42:03.755Z,2.94
2023-01-17T10:43:03.771Z,2.94
2023-01-17T10:44:04.160Z,3.00
2023-01-17T10:45:04.408Z,3.00
2023-01-17T10:46:03.674Z,3.06
2023-01-17T10:47:03.513Z,3.06
2023-01-17T10:48:03.852Z,3.06
2023-01-17T10:49:03.962Z,3.12
2023-01-17T10:50:03.919Z,3.12
2023-01-17T10:51:03.980Z,3.19
2023-01-17T10:52:04.020Z,3.19
2023-01-17T10:53:03.988Z,3.25
2023-01-17T10:54:04.076Z,3.25
2023-01-17T10:55:04.391Z,3.25
2023-01-17T10:56:04.397Z,3.31
2023-01-17T10:57:03.443Z,3.31
2023-01-17T10:58:03.444Z,3.38
2023-01-17T10:59:03.517Z,3.38
2023-01-17T11:00:03.522Z,3.38
2023-01-17T11:01:03.638Z,3.38
2023-01-17T11:02:03.832Z,3.38
2023-01-17T11:03:04.159Z,3.38
2023-01-17T11:04:04.070Z,3.44
2023-01-17T11:05:04.074Z,3.44
2023-01-17T11:06:04.069Z,3.44
2023-01-17T11:07:04.227Z,3.44
2023-01-17T11:08:04.265Z,3.44
2023-01-17T11:09:04.309Z,3.44
2023-01-17T11:10:03.444Z,3.50
2023-01-17T11:11:08.929Z,3.50
2023-01-17T11:12:03.936Z,3.56
2023-01-17T11:13:04.037Z,3.56
2023-01-17T11:14:04.151Z,3.62
2023-01-17T11:15:04.316Z,3.62
2023-01-17T11:16:04.501Z,3.69
2023-01-17T11:17:03.785Z,3.69
2023-01-17T11:18:03.679Z,3.75
2023-01-17T11:19:03.694Z,3.75
2023-01-17T11:20:03.660Z,3.75
2023-01-17T11:21:03.830Z,3.81
2023-01-17T11:22:04.289Z,3.81
2023-01-17T11:23:04.316Z,3.88
2023-01-17T11:24:04.120Z,3.88
2023-01-17T11:25:03.467Z,3.88
2023-01-17T11:26:08.819Z,3.88
2023-01-17T11:27:03.833Z,3.94
2023-01-17T11:28:04.146Z,3.94
2023-01-17T11:29:04.259Z,3.94
2023-01-17T11:30:03.859Z,3.94
2023-01-17T11:31:03.798Z,3.94
2023-01-17T11:32:03.669Z,3.94
2023-01-17T11:33:03.835Z,3.94
2023-01-17T11:34:03.833Z,3.94
2023-01-17T11:35:03.921Z,3.94
2023-01-17T11:36:03.916Z,3.94
2023-01-17T11:37:03.899Z,3.94
2023-01-17T11:38:03.986Z,3.94
2023-01-17T11:39:04.239Z,3.94
2023-01-17T11:40:04.232Z,3.94
2023-01-17T11:41:04.474Z,3.94
2023-01-17T11:42:04.069Z,3.94
2023-01-17T11:43:03.589Z,4.00
2023-01-17T11:44:04.069Z,3.94
2023-01-17T11:45:04.312Z,3.94
2023-01-17T11:46:04.486Z,4.00
2023-01-17T11:47:04.191Z,4.00
2023-01-17T11:48:03.676Z,4.00
2023-01-17T11:49:03.684Z,4.00
2023-01-17T11:50:03.833Z,4.00
2023-01-17T11:51:03.923Z,4.00
2023-01-17T11:52:04.379Z,4.00
2023-01-17T11:53:03.519Z,4.00
2023-01-17T11:54:04.400Z,4.00
2023-01-17T11:55:03.514Z,4.00
2023-01-17T11:56:03.756Z,4.00
2023-01-17T11:57:03.788Z,4.06
2023-01-17T11:58:03.927Z,4.06
2023-01-17T11:59:09.079Z,4.06
2023-01-17T12:00:09.653Z,4.06
2023-01-17T12:01:03.475Z,4.06
2023-01-17T12:02:03.432Z,4.06
2023-01-17T12:03:03.515Z,4.06
2023-01-17T12:04:03.683Z,4.00
2023-01-17T12:05:03.735Z,4.00
2023-01-17T12:06:03.604Z,4.00
2023-01-17T12:07:03.608Z,4.00
2023-01-17T12:08:03.669Z,4.00
2023-01-17T12:09:03.915Z,4.00
2023-01-17T12:10:03.925Z,4.00
2023-01-17T12:11:03.826Z,4.00
2023-01-17T12:12:04.515Z,4.00
2023-01-17T12:13:04.392Z,4.00
2023-01-17T12:14:04.388Z,4.00
2023-01-17T12:15:03.748Z,4.00
2023-01-17T12:16:03.698Z,4.00
2023-01-17T12:17:03.969Z,4.00
2023-01-17T12:18:03.867Z,4.06
2023-01-17T12:19:03.920Z,4.06
2023-01-17T12:20:03.914Z,4.06
2023-01-17T12:21:03.914Z,4.00
2023-01-17T12:22:03.990Z,4.06
2023-01-17T12:23:04.008Z,4.00
2023-01-17T12:24:03.989Z,4.06
2023-01-17T12:25:04.228Z,4.06
2023-01-17T12:26:04.386Z,4.06
2023-01-17T12:27:03.711Z,4.06
2023-01-17T12:28:03.604Z,4.06
2023-01-17T12:29:03.755Z,4.06
2023-01-17T12:30:03.753Z,4.06
2023-01-17T12:31:04.375Z,4.00
2023-01-17T12:32:04.068Z,4.06
2023-01-17T12:33:04.309Z,4.06
2023-01-17T12:34:05.883Z,4.06
2023-01-17T12:35:03.675Z,4.00
2023-01-17T12:36:03.681Z,4.06
2023-01-17T12:37:03.614Z,4.00
2023-01-17T12:38:05.076Z,4.06
2023-01-17T12:39:03.671Z,4.00
2023-01-17T12:40:03.665Z,4.00
2023-01-17T12:41:03.767Z,4.00
2023-01-17T12:42:03.755Z,4.06
2023-01-17T12:43:03.833Z,4.06
2023-01-17T12:44:03.933Z,4.06
2023-01-17T12:45:04.065Z,4.06
2023-01-17T12:46:04.006Z,4.06
2023-01-17T12:47:04.070Z,4.06
2023-01-17T12:48:03.995Z,4.06
2023-01-17T12:49:04.071Z,4.06
2023-01-17T12:50:04.075Z,4.12
2023-01-17T12:51:04.103Z,4.12
2023-01-17T12:52:04.080Z,4.12
2023-01-17T12:53:04.068Z,4.12
2023-01-17T12:54:04.156Z,4.12
2023-01-17T12:55:04.151Z,4.12
2023-01-17T12:56:04.155Z,4.12
2023-01-17T12:57:04.148Z,4.12
2023-01-17T12:58:04.231Z,4.12
2023-01-17T12:59:04.228Z,4.19
2023-01-17T13:00:04.320Z,4.19
2023-01-17T13:01:03.682Z,4.19
2023-01-17T13:02:03.730Z,4.19
2023-01-17T13:03:03.728Z,4.25
2023-01-17T13:04:03.751Z,4.25
2023-01-17T13:05:04.326Z,4.25
2023-01-17T13:06:04.800Z,4.25
2023-01-17T13:07:04.311Z,4.25
2023-01-17T13:08:08.671Z,4.31
2023-01-17T13:09:03.770Z,4.31
2023-01-17T13:10:04.137Z,4.31
2023-01-17T13:11:04.335Z,4.31
2023-01-17T13:12:04.312Z,4.31
2023-01-17T13:13:04.427Z,4.31
2023-01-17T13:14:04.418Z,4.31
2023-01-17T13:15:04.396Z,4.31
2023-01-17T13:16:04.451Z,4.38
2023-01-17T13:17:03.609Z,4.38
2023-01-17T13:18:03.596Z,4.38